createdAt,value
2022-09-15T00:02:11.875Z,77.18
2022-09-15T00:04:38.544Z,77.04
2022-09-15T00:07:05.004Z,76.87
2022-09-15T00:09:31.648Z,77.11
2022-09-15T00:11:58.041Z,77.30
2022-09-15T00:14:24.584Z,77.31
2022-09-15T00:16:51.052Z,77.56
2022-09-15T00:19:17.488Z,76.96
2022-09-15T00:21:44.161Z,77.35
2022-09-15T00:24:10.748Z,77.41
2022-09-15T00:26:38.321Z,77.38
2022-09-15T00:29:05.504Z,77.56
2022-09-15T00:31:33.283Z,77.87
2022-09-15T00:34:04.284Z,77.70
2022-09-15T00:36:31.125Z,78.04
2022-09-15T00:38:57.679Z,77.81
2022-09-15T00:41:24.926Z,77.88
2022-09-15T00:43:57.075Z,77.87
2022-09-15T00:46:31.313Z,77.51
2022-09-15T00:49:04.062Z,77.57
2022-09-15T00:51:45.732Z,77.66
2022-09-15T00:54:20.410Z,77.55
2022-09-15T00:56:49.624Z,77.39
2022-09-15T00:59:21.084Z,77.44
2022-09-15T01:01:55.170Z,77.65
2022-09-15T01:04:21.935Z,77.51
2022-09-15T01:06:57.436Z,77.67
2022-09-15T01:09:38.655Z,78.03
2022-09-15T01:12:05.618Z,77.75
2022-09-15T01:14:32.165Z,78.09
2022-09-15T01:17:06.863Z,77.88
2022-09-15T01:19:51.396Z,78.08
2022-09-15T01:22:55.603Z,78.03
2022-09-15T01:25:41.456Z,78.05
2022-09-15T01:28:16.612Z,78.09
2022-09-15T01:30:53.262Z,78.44
2022-09-15T01:33:35.217Z,78.09
2022-09-15T01:36:08.989Z,78.25
2022-09-15T01:38:39.985Z,78.33
2022-09-15T01:41:15.423Z,78.77
2022-09-15T01:43:54.923Z,78.44
2022-09-15T01:46:25.460Z,78.50
2022-09-15T01:48:55.305Z,78.50
2022-09-15T01:51:24.100Z,78.70
2022-09-15T01:53:55.616Z,78.69
2022-09-15T01:56:22.375Z,78.70
2022-09-15T01:58:50.477Z,78.90
2022-09-15T02:01:29.748Z,79.35
2022-09-15T02:04:14.019Z,79.18
2022-09-15T02:06:53.418Z,79.33
2022-09-15T02:09:23.076Z,79.29
2022-09-15T02:12:07.737Z,79.40
2022-09-15T02:14:59.375Z,79.70
2022-09-15T02:17:30.317Z,79.74
2022-09-15T02:20:16.188Z,79.30
2022-09-15T02:22:49.656Z,79.31
2022-09-15T02:25:25.845Z,79.50
2022-09-15T02:27:56.150Z,79.38
2022-09-15T02:30:23.224Z,79.82
2022-09-15T02:32:58.020Z,79.53
2022-09-15T02:35:28.785Z,80.03
2022-09-15T02:37:56.657Z,80.26
2022-09-15T02:40:23.409Z,80.26
2022-09-15T02:42:55.759Z,80.30
2022-09-15T02:45:24.817Z,80.22
2022-09-15T02:47:51.528Z,80.33
2022-09-15T02:50:18.889Z,80.40
2022-09-15T02:52:45.381Z,80.48
2022-09-15T02:55:12.497Z,79.93
2022-09-15T02:57:39.014Z,79.83
2022-09-15T03:00:13.128Z,79.57
2022-09-15T03:02:44.748Z,79.79
2022-09-15T03:05:13.651Z,79.97
2022-09-15T03:07:41.036Z,80.13
2022-09-15T03:10:10.417Z,80.19
2022-09-15T03:12:38.812Z,80.47
2022-09-15T03:15:06.773Z,80.21
2022-09-15T03:17:38.112Z,80.55
2022-09-15T03:20:07.035Z,80.60
2022-09-15T03:22:33.812Z,80.20
2022-09-15T03:25:00.735Z,80.32
2022-09-15T03:27:27.380Z,80.21
2022-09-15T03:29:54.009Z,80.22
2022-09-15T03:32:20.524Z,80.04
2022-09-15T03:34:47.028Z,80.60
2022-09-15T03:37:13.501Z,81.00
2022-09-15T03:39:39.882Z,80.80
2022-09-15T03:42:09.400Z,80.65
2022-09-15T03:44:35.859Z,81.08
2022-09-15T03:47:03.812Z,80.78
2022-09-15T03:49:30.345Z,80.58
2022-09-15T03:51:58.717Z,80.56
2022-09-15T03:54:26.231Z,80.32
2022-09-15T03:56:52.631Z,80.46
2022-09-15T03:59:20.741Z,80.24
2022-09-15T04:01:48.397Z,79.75
2022-09-15T04:04:18.293Z,79.89
2022-09-15T04:06:45.155Z,79.87
2022-09-15T04:09:11.731Z,79.94
2022-09-15T04:11:39.573Z,79.81
2022-09-15T04:14:06.308Z,79.99
2022-09-15T04:16:32.787Z,80.05
2022-09-15T04:18:59.464Z,80.23
2022-09-15T04:21:26.846Z,79.89
2022-09-15T04:23:54.233Z,80.13
2022-09-15T04:26:26.395Z,80.34
2022-09-15T04:28:53.137Z,80.34
2022-09-15T04:31:20.333Z,80.42
2022-09-15T04:33:47.768Z,79.85
2022-09-15T04:36:17.207Z,79.77
2022-09-15T04:38:43.860Z,79.38
2022-09-15T04:41:11.359Z,79.22
2022-09-15T04:43:40.538Z,79.17
2022-09-15T04:46:07.625Z,79.31
2022-09-15T04:48:34.139Z,78.86
2022-09-15T04:51:21.439Z,78.60
2022-09-15T04:53:49.029Z,78.80
2022-09-15T04:56:21.507Z,79.00
2022-09-15T04:58:53.650Z,79.11
2022-09-15T05:01:26.057Z,78.96
2022-09-15T05:03:52.899Z,79.20
2022-09-15T05:06:22.450Z,79.22
2022-09-15T05:08:51.469Z,79.08
2022-09-15T05:11:19.344Z,78.38
2022-09-15T05:13:46.507Z,78.67
2022-09-15T05:16:18.429Z,78.49
2022-09-15T05:18:46.703Z,79.01
2022-09-15T05:21:15.731Z,78.68
2022-09-15T05:23:42.420Z,78.58
2022-09-15T05:26:13.250Z,78.81
2022-09-15T05:28:40.399Z,79.16
2022-09-15T05:31:21.229Z,78.93
2022-09-15T05:33:49.218Z,78.57
2022-09-15T05:36:17.400Z,78.71
2022-09-15T05:38:44.526Z,78.49
2022-09-15T05:41:13.143Z,78.63
2022-09-15T05:43:40.159Z,78.22
2022-09-15T05:46:07.958Z,78.36
2022-09-15T05:48:34.857Z,77.84
2022-09-15T05:51:01.777Z,77.91
2022-09-15T05:53:29.009Z,78.06
2022-09-15T05:56:00.045Z,77.62
2022-09-15T05:58:27.716Z,77.58
2022-09-15T06:00:54.658Z,77.57
2022-09-15T06:03:22.115Z,76.88
2022-09-15T06:05:48.791Z,76.95
2022-09-15T06:08:15.753Z,77.70
2022-09-15T06:10:42.201Z,77.67
2022-09-15T06:13:08.597Z,77.36
2022-09-15T06:15:35.173Z,76.94
2022-09-15T06:18:01.610Z,76.09
2022-09-15T06:20:28.158Z,75.47
2022-09-15T06:22:56.086Z,74.58
2022-09-15T06:25:23.878Z,74.57
2022-09-15T06:27:50.603Z,74.69
2022-09-15T06:30:17.965Z,73.95
2022-09-15T06:32:48.059Z,73.91
2022-09-15T06:35:15.300Z,73.15
2022-09-15T06:37:41.817Z,73.50
2022-09-15T06:40:09.041Z,73.43
2022-09-15T06:42:35.595Z,73.10
2022-09-15T06:45:01.945Z,73.01
2022-09-15T06:47:33.743Z,73.10
2022-09-15T06:50:00.907Z,72.98
2022-09-15T06:52:27.647Z,72.66
2022-09-15T06:54:54.165Z,72.08
2022-09-15T06:57:20.636Z,69.48
2022-09-15T06:59:46.985Z,68.82
2022-09-15T07:02:13.629Z,69.24
2022-09-15T07:04:40.121Z,66.92
2022-09-15T07:07:06.739Z,68.05
2022-09-15T07:09:33.248Z,68.80
2022-09-15T07:11:59.627Z,70.24
2022-09-15T07:14:26.013Z,70.51
2022-09-15T07:16:52.577Z,70.46
2022-09-15T07:19:19.148Z,70.50
2022-09-15T07:21:45.513Z,71.04
2022-09-15T07:24:12.700Z,71.11
2022-09-15T07:26:39.221Z,70.79
2022-09-15T07:29:06.849Z,71.61
2022-09-15T07:31:36.221Z,71.38
2022-09-15T07:34:03.364Z,71.72
2022-09-15T07:36:31.007Z,71.88
2022-09-15T07:38:58.297Z,72.27
2022-09-15T07:41:29.852Z,72.05
2022-09-15T07:43:58.139Z,71.15
2022-09-15T07:46:25.955Z,70.95
2022-09-15T07:48:56.360Z,70.39
2022-09-15T07:51:24.083Z,70.16
2022-09-15T07:53:51.923Z,69.61
2022-09-15T07:56:18.735Z,68.47
2022-09-15T07:58:46.447Z,68.72
2022-09-15T08:01:16.393Z,68.70
2022-09-15T08:03:46.417Z,68.34
2022-09-15T08:06:17.977Z,67.47
2022-09-15T08:08:45.633Z,67.44
2022-09-15T08:11:18.443Z,67.17
2022-09-15T08:13:49.664Z,67.41
2022-09-15T08:16:21.985Z,67.38
2022-09-15T08:18:49.828Z,67.43
2022-09-15T08:21:20.411Z,67.12
2022-09-15T08:23:51.808Z,67.32
2022-09-15T08:26:18.941Z,66.39
2022-09-15T08:28:45.372Z,66.85
2022-09-15T08:31:13.789Z,66.56
2022-09-15T08:33:45.250Z,65.56
2022-09-15T08:36:13.359Z,65.59
2022-09-15T08:38:40.830Z,65.12
2022-09-15T08:41:22.177Z,64.29
2022-09-15T08:44:11.989Z,63.20
2022-09-15T08:47:10.740Z,62.24
2022-09-15T08:49:58.944Z,62.28
2022-09-15T08:53:07.003Z,62.11
2022-09-15T08:55:51.013Z,62.33
2022-09-15T08:58:21.226Z,61.60
2022-09-15T09:01:02.259Z,62.19
2022-09-15T09:04:02.624Z,62.39
2022-09-15T09:06:59.068Z,61.52
2022-09-15T09:09:28.493Z,62.24
2022-09-15T09:12:12.804Z,61.19
2022-09-15T09:15:09.852Z,61.67
2022-09-15T09:18:07.510Z,61.24
2022-09-15T09:20:59.695Z,62.42
2022-09-15T09:23:29.765Z,61.09
2022-09-15T09:25:57.903Z,61.09
2022-09-15T09:28:35.211Z,61.19
2022-09-15T09:31:08.454Z,61.45
2022-09-15T09:33:48.283Z,61.34
2022-09-15T09:36:14.924Z,61.34
2022-09-15T09:38:44.940Z,61.92
2022-09-15T09:41:15.122Z,61.63
2022-09-15T09:43:44.025Z,62.17
2022-09-15T09:46:14.088Z,62.01
2022-09-15T09:48:45.343Z,62.06
2022-09-15T09:51:36.448Z,63.37
2022-09-15T09:54:05.566Z,62.18
2022-09-15T09:56:32.132Z,61.73
2022-09-15T09:58:58.669Z,61.41
2022-09-15T10:01:26.918Z,60.06
2022-09-15T10:04:17.195Z,59.66
2022-09-15T10:06:44.089Z,60.66
2022-09-15T10:09:16.951Z,59.70
2022-09-15T10:11:43.277Z,59.12
2022-09-15T10:14:19.830Z,58.63
2022-09-15T10:16:57.709Z,58.64
2022-09-15T10:19:24.522Z,58.23
2022-09-15T10:21:51.148Z,59.80
2022-09-15T10:24:31.232Z,59.75
2022-09-15T10:27:25.391Z,59.64
2022-09-15T10:29:52.035Z,60.70
2022-09-15T10:32:30.016Z,60.20
2022-09-15T10:35:19.303Z,60.27
2022-09-15T10:37:45.615Z,58.46
2022-09-15T10:40:36.560Z,57.29
2022-09-15T10:43:05.852Z,56.00
2022-09-15T10:45:40.471Z,57.08
2022-09-15T10:48:25.047Z,55.45
2022-09-15T10:51:06.896Z,55.56
2022-09-15T10:57:13.440Z,53.86
2022-09-15T10:59:54.431Z,55.14
2022-09-15T11:02:45.717Z,53.97
2022-09-15T11:05:23.053Z,53.24
2022-09-15T11:08:27.297Z,53.12
2022-09-15T11:11:09.036Z,53.07
2022-09-15T11:13:50.368Z,52.92
2022-09-15T11:16:31.306Z,52.33
2022-09-15T11:19:00.411Z,51.33
2022-09-15T11:21:37.971Z,49.58
2022-09-15T11:24:34.986Z,52.07
2022-09-15T11:27:05.021Z,50.70
2022-09-15T11:29:42.460Z,49.37
2022-09-15T11:32:17.741Z,48.48
2022-09-15T11:34:53.384Z,47.65
2022-09-15T11:37:26.737Z,45.86
2022-09-15T11:40:16.309Z,48.39
2022-09-15T11:43:21.465Z,48.98
2022-09-15T11:45:54.587Z,48.93
2022-09-15T11:48:40.211Z,49.02
2022-09-15T11:51:07.464Z,48.33
2022-09-15T11:53:41.244Z,48.41
2022-09-15T11:56:15.924Z,48.98
2022-09-15T11:59:04.641Z,49.05
2022-09-15T12:01:48.390Z,49.18
2022-09-15T12:04:22.101Z,48.59
2022-09-15T12:06:54.511Z,47.58
2022-09-15T12:09:22.174Z,46.65
2022-09-15T12:11:55.120Z,44.57
2022-09-15T12:14:43.794Z,46.51
2022-09-15T12:17:41.819Z,46.15
2022-09-15T12:20:17.444Z,41.76
2022-09-15T12:22:53.556Z,41.72
2022-09-15T12:25:26.960Z,42.88
2022-09-15T12:28:21.464Z,43.20
2022-09-15T12:30:49.505Z,42.84
2022-09-15T12:33:44.935Z,45.32
2022-09-15T12:36:30.904Z,44.37
2022-09-15T12:38:58.914Z,44.39
2022-09-15T12:41:26.324Z,43.86
2022-09-15T12:43:59.351Z,44.51
2022-09-15T12:46:26.398Z,45.04
2022-09-15T12:48:59.390Z,46.47
2022-09-15T12:51:29.107Z,47.81
2022-09-15T12:54:01.037Z,47.86
2022-09-15T12:59:26.321Z,47.96
2022-09-15T13:01:54.471Z,48.60
2022-09-15T13:04:43.044Z,49.31
2022-09-15T13:07:15.342Z,50.19
2022-09-15T13:10:19.268Z,50.76
2022-09-15T13:12:55.279Z,51.14
2022-09-15T13:15:25.264Z,51.09
2022-09-15T13:17:52.623Z,51.54
2022-09-15T13:20:33.536Z,51.20
2022-09-15T13:23:03.092Z,52.04
2022-09-15T13:25:40.512Z,51.52
2022-09-15T13:28:11.615Z,51.42
2022-09-15T13:31:06.590Z,51.55
2022-09-15T13:40:27.220Z,51.91
2022-09-15T13:43:22.775Z,50.22
2022-09-15T13:46:04.200Z,51.04
2022-09-15T13:49:23.464Z,50.98
2022-09-15T13:51:59.751Z,51.69
2022-09-15T13:54:26.653Z,51.52
2022-09-15T13:56:53.295Z,51.91
2022-09-15T13:59:25.635Z,50.65
2022-09-15T14:01:53.331Z,48.83
2022-09-15T14:04:25.561Z,48.37
2022-09-15T14:07:00.788Z,49.71
2022-09-15T14:09:33.405Z,49.43
2022-09-15T14:12:04.849Z,50.46
2022-09-15T14:14:35.100Z,50.41
2022-09-15T14:17:02.058Z,50.57
2022-09-15T14:19:37.119Z,50.93
2022-09-15T14:22:26.602Z,50.76
2022-09-15T14:24:54.181Z,50.65
2022-09-15T14:27:33.669Z,50.59
2022-09-15T14:30:06.619Z,50.49
2022-09-15T14:32:38.511Z,49.39
2022-09-15T14:35:09.391Z,48.98
2022-09-15T14:37:36.009Z,48.22
2022-09-15T14:40:18.017Z,48.15
2022-09-15T14:42:44.631Z,47.44
2022-09-15T14:48:05.886Z,47.72
2022-09-15T14:53:21.050Z,47.40
2022-09-15T14:56:08.236Z,48.29
2022-09-15T14:58:58.803Z,47.53
2022-09-15T15:01:25.321Z,47.16
2022-09-15T15:03:58.575Z,47.23
2022-09-15T15:06:35.506Z,48.04
2022-09-15T15:09:37.820Z,48.20
2022-09-15T15:12:25.912Z,48.63
2022-09-15T15:14:54.503Z,49.29
2022-09-15T15:17:44.163Z,49.67
2022-09-15T15:20:10.467Z,49.73
2022-09-15T15:22:38.831Z,50.46
2022-09-15T15:25:29.808Z,50.86
2022-09-15T15:27:57.924Z,50.72
2022-09-15T15:30:30.773Z,51.53
2022-09-15T15:33:19.646Z,52.08
2022-09-15T15:35:49.407Z,51.51
2022-09-15T15:38:25.378Z,51.21
2022-09-15T15:41:01.092Z,51.57
2022-09-15T15:43:28.932Z,50.71
2022-09-15T15:46:00.854Z,50.81
2022-09-15T15:48:33.997Z,50.17
2022-09-15T15:51:04.538Z,50.76
2022-09-15T15:53:31.420Z,50.92
2022-09-15T15:55:59.544Z,51.10
2022-09-15T15:58:26.219Z,50.88
2022-09-15T16:00:57.340Z,51.34
2022-09-15T16:03:24.898Z,51.71
2022-09-15T16:06:02.937Z,51.47
2022-09-15T16:08:32.133Z,52.06
2022-09-15T16:11:01.674Z,52.48
2022-09-15T16:13:28.815Z,52.79
2022-09-15T16:15:57.830Z,53.50
2022-09-15T16:18:25.313Z,53.75
2022-09-15T16:20:52.298Z,54.34
2022-09-15T16:23:22.743Z,54.62
2022-09-15T16:25:53.605Z,54.69
2022-09-15T16:28:20.149Z,54.55
2022-09-15T16:30:47.419Z,54.33
2022-09-15T16:33:18.454Z,53.81
2022-09-15T16:35:55.200Z,54.39
2022-09-15T16:38:25.380Z,54.34
2022-09-15T16:40:52.297Z,54.63
2022-09-15T16:43:22.642Z,54.50
2022-09-15T16:45:50.527Z,54.57
2022-09-15T16:48:17.393Z,55.08
2022-09-15T16:51:01.666Z,55.66
2022-09-15T16:53:31.598Z,55.40
2022-09-15T16:55:58.731Z,56.00
2022-09-15T16:58:31.196Z,55.30
2022-09-15T17:01:04.712Z,56.06
2022-09-15T17:03:31.598Z,55.96
2022-09-15T17:06:00.407Z,56.01
2022-09-15T17:08:30.451Z,56.56
2022-09-15T17:11:02.588Z,56.15
2022-09-15T17:13:39.998Z,57.10
2022-09-15T17:16:08.900Z,57.02
2022-09-15T17:18:35.273Z,56.80
2022-09-15T17:21:01.657Z,57.09
2022-09-15T17:23:35.448Z,57.19
2022-09-15T17:26:05.052Z,56.87
2022-09-15T17:28:33.853Z,57.28
2022-09-15T17:31:13.795Z,57.72
2022-09-15T17:33:43.894Z,58.17
2022-09-15T17:36:22.358Z,58.56
2022-09-15T17:38:51.042Z,58.93
2022-09-15T17:41:19.521Z,59.06
2022-09-15T17:43:46.546Z,59.07
2022-09-15T17:46:13.619Z,59.71
2022-09-15T17:48:40.304Z,59.75
2022-09-15T17:51:07.948Z,60.33
2022-09-15T17:53:34.498Z,60.10
2022-09-15T17:56:01.092Z,60.49
2022-09-15T17:58:29.855Z,61.21
2022-09-15T18:01:01.555Z,61.08
2022-09-15T18:03:34.851Z,61.15
2022-09-15T18:06:07.474Z,61.78
2022-09-15T18:08:35.914Z,61.84
2022-09-15T18:11:03.840Z,61.88
2022-09-15T18:13:31.033Z,62.28
2022-09-15T18:15:58.195Z,62.99
2022-09-15T18:18:27.389Z,63.61
2022-09-15T18:20:55.854Z,63.76
2022-09-15T18:23:24.301Z,63.23
2022-09-15T18:25:51.344Z,63.65
2022-09-15T18:28:19.078Z,65.70
2022-09-15T18:30:48.021Z,67.70
2022-09-15T18:33:23.437Z,67.61
2022-09-15T18:35:52.488Z,69.28
2022-09-15T18:38:19.146Z,69.77
2022-09-15T18:40:50.323Z,70.09
2022-09-15T18:43:17.547Z,70.92
2022-09-15T18:45:44.135Z,71.17
2022-09-15T18:48:13.059Z,71.90
2022-09-15T18:50:40.915Z,72.25
2022-09-15T18:53:24.034Z,72.77
2022-09-15T18:56:11.204Z,72.73
2022-09-15T18:58:59.267Z,72.71
2022-09-15T19:01:29.838Z,72.54
2022-09-15T19:03:58.692Z,73.20
2022-09-15T19:06:31.322Z,73.61
2022-09-15T19:09:10.892Z,74.45
2022-09-15T19:11:41.796Z,73.55
2022-09-15T19:14:10.581Z,74.05
2022-09-15T19:16:56.976Z,73.32
2022-09-15T19:19:25.329Z,74.10
2022-09-15T19:21:51.766Z,74.06
2022-09-15T19:24:18.444Z,74.34
2022-09-15T19:26:50.252Z,74.41
2022-09-15T19:29:16.913Z,74.89
2022-09-15T19:31:45.632Z,74.77
2022-09-15T19:34:11.999Z,74.65
2022-09-15T19:36:38.437Z,74.76
2022-09-15T19:39:09.007Z,74.82
2022-09-15T19:41:35.371Z,74.52
2022-09-15T19:44:02.508Z,74.64
2022-09-15T19:46:40.161Z,74.72
2022-09-15T19:49:10.170Z,75.17
2022-09-15T19:52:40.738Z,75.38
2022-09-15T19:54:41.213Z,75.50
2022-09-15T19:57:09.243Z,75.44
2022-09-15T19:59:43.272Z,75.52
2022-09-15T20:02:10.719Z,75.56
2022-09-15T20:04:39.986Z,75.02
2022-09-15T20:07:07.979Z,74.91
2022-09-15T20:09:34.620Z,74.59
2022-09-15T20:12:03.788Z,73.97
2022-09-15T20:14:33.721Z,75.13
2022-09-15T20:17:01.290Z,75.71
2022-09-15T20:19:29.982Z,75.91
2022-09-15T20:21:57.544Z,75.87
2022-09-15T20:24:24.458Z,76.60
2022-09-15T20:26:52.073Z,77.00
2022-09-15T20:29:23.118Z,76.81
2022-09-15T20:31:49.554Z,77.15
2022-09-15T20:34:21.581Z,77.23
2022-09-15T20:36:47.953Z,77.08
2022-09-15T20:39:16.409Z,77.28
2022-09-15T20:41:45.233Z,77.38
2022-09-15T20:44:19.615Z,77.07
2022-09-15T20:46:46.169Z,76.68
2022-09-15T20:49:12.999Z,76.31
2022-09-15T20:51:39.410Z,76.39
2022-09-15T20:54:05.858Z,76.46
2022-09-15T20:56:34.891Z,76.29
2022-09-15T20:59:01.880Z,76.74
2022-09-15T21:01:34.090Z,76.95
2022-09-15T21:04:03.635Z,76.47
2022-09-15T21:06:31.495Z,76.84
2022-09-15T21:08:58.501Z,77.19
2022-09-15T21:11:27.085Z,77.20
2022-09-15T21:13:54.865Z,77.47
2022-09-15T21:16:24.327Z,77.21
2022-09-15T21:18:51.109Z,77.84
2022-09-15T21:21:23.288Z,78.18
2022-09-15T21:23:53.059Z,78.04
2022-09-15T21:26:28.172Z,77.92
2022-09-15T21:28:55.978Z,78.35
2022-09-15T21:31:28.201Z,78.21
2022-09-15T21:33:55.582Z,78.23
2022-09-15T21:36:32.000Z,78.53
2022-09-15T21:38:59.383Z,78.71
2022-09-15T21:41:29.043Z,78.78
2022-09-15T21:43:56.340Z,78.61
2022-09-15T21:46:32.565Z,79.01
2022-09-15T21:49:00.625Z,78.98
2022-09-15T21:51:29.630Z,78.98
2022-09-15T21:53:58.554Z,78.96
2022-09-15T21:56:27.463Z,79.23
2022-09-15T21:58:55.017Z,79.78
2022-09-15T22:01:22.841Z,80.22
2022-09-15T22:03:57.540Z,80.77
2022-09-15T22:06:33.100Z,81.04
2022-09-15T22:09:10.878Z,80.93
2022-09-15T22:11:40.220Z,80.78
2022-09-15T22:14:10.480Z,81.93
2022-09-15T22:16:38.780Z,82.41
2022-09-15T22:19:16.247Z,82.52
2022-09-15T22:21:43.905Z,82.59
2022-09-15T22:24:12.838Z,82.54
2022-09-15T22:26:40.664Z,82.50
2022-09-15T22:29:07.055Z,82.51
2022-09-15T22:31:34.156Z,82.37
2022-09-15T22:34:00.656Z,82.71
2022-09-15T22:36:30.329Z,82.41
2022-09-15T22:39:03.889Z,82.30
2022-09-15T22:41:33.029Z,82.44
2022-09-15T22:43:59.405Z,82.74
2022-09-15T22:46:27.498Z,82.77
2022-09-15T22:48:53.906Z,82.65
2022-09-15T22:51:20.544Z,82.71
2022-09-15T22:53:47.163Z,82.58
2022-09-15T22:56:19.663Z,82.79
2022-09-15T22:58:47.955Z,82.75
2022-09-15T23:01:17.445Z,82.50
2022-09-15T23:03:47.538Z,82.51
2022-09-15T23:06:15.199Z,82.37
2022-09-15T23:08:41.729Z,82.21
2022-09-15T23:11:11.546Z,82.32
2022-09-15T23:13:38.021Z,82.48
2022-09-15T23:16:05.842Z,82.40
2022-09-15T23:18:32.876Z,82.52
2022-09-15T23:21:01.688Z,82.24
2022-09-15T23:23:29.341Z,82.35
2022-09-15T23:25:56.131Z,82.04
2022-09-15T23:28:23.448Z,82.18
2022-09-15T23:30:54.898Z,82.65
2022-09-15T23:33:22.621Z,83.09
2022-09-15T23:35:49.086Z,83.21
2022-09-15T23:38:16.983Z,83.48
2022-09-15T23:40:44.641Z,83.34
2022-09-15T23:43:12.134Z,83.34
2022-09-15T23:45:38.604Z,83.71
2022-09-15T23:48:06.956Z,83.90
2022-09-15T23:50:33.346Z,84.21
2022-09-15T23:53:00.099Z,83.81
2022-09-15T23:55:26.966Z,83.90
2022-09-15T23:57:53.861Z,84.15
